Time;durP1;ratioP1;P1;durP2;ratioP2;P2;SDS_P1;SDS_P2;PMS_P1;PMS_P2;Temp;Humidity;BMP_temperature;BMP_pressure;BME280_temperature;BME280_humidity;BME280_pressure;Samples;Min_cycle;Max_cycle;Signal;HPM_P1;HPM_P2
2021/12/11 00:00:36;;;;;;;23.58;11.15;;;;;;;0.31;100.00;100430.59;4919256;29;20499;-66
2021/12/11 00:03:17;;;;;;;22.25;10.63;;;;;;;0.30;100.00;100442.06;4918839;29;20115;-66
2021/12/11 00:05:54;;;;;;;22.80;9.50;;;;;;;0.28;100.00;100440.53;4919058;29;20052;-66
2021/12/11 00:08:25;;;;;;;21.83;10.18;;;;;;;0.27;100.00;100441.53;4918990;29;20047;-66
2021/12/11 00:11:03;;;;;;;26.70;13.52;;;;;;;0.26;100.00;100447.72;4918696;29;20024;-66
2021/12/11 00:13:32;;;;;;;33.72;13.77;;;;;;;0.30;100.00;100464.84;4918846;29;20118;-66
2021/12/11 00:15:59;;;;;;;28.48;13.25;;;;;;;0.27;100.00;100468.56;4918770;29;20024;-66
2021/12/11 00:18:29;;;;;;;27.40;13.40;;;;;;;0.28;100.00;100472.00;4918843;29;20119;-66
2021/12/11 00:21:02;;;;;;;26.63;13.50;;;;;;;0.22;100.00;100463.72;4918392;29;20099;-66
2021/12/11 00:23:42;;;;;;;30.88;13.13;;;;;;;0.27;100.00;100480.88;4901619;29;20464;-66
2021/12/11 00:26:10;;;;;;;26.98;14.95;;;;;;;0.30;100.00;100486.66;4918006;29;20027;-66
2021/12/11 00:28:44;;;;;;;30.33;12.63;;;;;;;0.35;100.00;100484.44;4918699;29;20031;-66
2021/12/11 00:31:10;;;;;;;30.13;15.68;;;;;;;0.44;100.00;100491.44;4918641;29;20479;-66
2021/12/11 00:33:35;;;;;;;25.17;13.75;;;;;;;0.49;100.00;100508.56;4917929;29;20139;-66
2021/12/11 00:36:10;;;;;;;26.15;14.25;;;;;;;0.48;100.00;100520.06;4918561;29;20040;-66
2021/12/11 00:38:38;;;;;;;27.88;13.52;;;;;;;0.43;100.00;100513.41;4917983;29;20028;-66
2021/12/11 00:41:11;;;;;;;25.38;13.00;;;;;;;0.38;100.00;100520.06;4901477;29;20392;-66
2021/12/11 00:43:37;;;;;;;29.77;14.70;;;;;;;0.35;100.00;100515.91;4918002;29;20078;-66
2021/12/11 00:46:06;;;;;;;27.80;14.38;;;;;;;0.34;100.00;100529.16;4918023;29;20032;-66
2021/12/11 00:48:32;;;;;;;24.33;13.73;;;;;;;0.32;100.00;100536.34;4918076;29;20138;-66
2021/12/11 00:51:03;;;;;;;28.33;14.07;;;;;;;0.30;100.00;100528.59;4917782;29;20032;-66
2021/12/11 00:53:38;;;;;;;25.73;14.30;;;;;;;0.29;100.00;100542.69;4917498;29;20573;-66
2021/12/11 00:56:09;;;;;;;26.52;13.23;;;;;;;0.31;100.00;100550.41;4918106;29;20050;-66
2021/12/11 00:58:37;;;;;;;29.07;16.60;;;;;;;0.32;100.00;100554.72;4918132;29;20452;-66
2021/12/11 01:01:06;;;;;;;25.95;13.27;;;;;;;0.30;100.00;100548.78;4901013;29;20424;-66
2021/12/11 01:03:34;;;;;;;25.35;13.02;;;;;;;0.30;100.00;100556.63;4901068;29;20396;-65
2021/12/11 01:06:07;;;;;;;28.02;12.05;;;;;;;0.27;100.00;100565.59;4917880;29;20066;-66
2021/12/11 01:08:36;;;;;;;27.00;14.07;;;;;;;0.24;100.00;100572.91;4917824;29;20039;-66
2021/12/11 01:11:16;;;;;;;28.35;13.82;;;;;;;0.25;100.00;100577.19;4900727;29;20396;-66
2021/12/11 01:14:06;;;;;;;26.50;13.30;;;;;;;0.24;100.00;100579.00;4900677;29;20028;-66
2021/12/11 01:16:32;;;;;;;28.13;14.52;;;;;;;0.24;100.00;100592.13;4917010;29;20024;-66
2021/12/11 01:19:00;;;;;;;28.10;13.20;;;;;;;0.24;100.00;100597.34;4917666;29;20035;-66
2021/12/11 01:21:42;;;;;;;27.30;13.45;;;;;;;0.23;100.00;100598.31;4917338;29;20024;-66
2021/12/11 01:24:28;;;;;;;27.27;12.57;;;;;;;0.23;100.00;100606.16;4917566;29;20082;-66
2021/12/11 01:26:57;;;;;;;28.20;14.20;;;;;;;0.22;100.00;100604.53;4917471;29;20040;-66
2021/12/11 01:29:27;;;;;;;30.98;14.90;;;;;;;0.25;100.00;100609.50;4917443;29;20075;-65
2021/12/11 01:31:56;;;;;;;31.40;15.65;;;;;;;0.26;100.00;100621.63;4917478;29;20060;-65
2021/12/11 01:34:22;;;;;;;27.67;13.93;;;;;;;0.29;100.00;100620.53;4917153;29;20059;-65
2021/12/11 01:36:49;;;;;;;25.15;13.13;;;;;;;0.26;100.00;100633.91;4917279;29;20129;-66
2021/12/11 01:39:18;;;;;;;29.00;14.18;;;;;;;0.21;100.00;100639.59;4917307;29;20032;-66
2021/12/11 01:41:46;;;;;;;28.27;12.73;;;;;;;0.14;100.00;100641.91;4917222;29;20049;-65
2021/12/11 01:44:16;;;;;;;29.75;14.02;;;;;;;0.11;100.00;100642.19;4917299;29;20032;-68
2021/12/11 01:46:43;;;;;;;28.75;12.07;;;;;;;0.09;100.00;100651.97;4917187;29;20136;-67
2021/12/11 01:49:15;;;;;;;30.10;14.15;;;;;;;0.09;100.00;100646.72;4899779;29;20464;-65
2021/12/11 01:52:01;;;;;;;;;;;;;;;0.09;100.00;100659.84;4916693;29;20160;-65
2021/12/11 01:54:34;;;;;;;23.65;12.05;;;;;;;0.10;100.00;100671.97;4916321;29;20400;-65
2021/12/11 01:57:07;;;;;;;27.13;13.73;;;;;;;0.11;100.00;100672.81;4916981;29;20106;-68
2021/12/11 01:59:41;;;;;;;25.20;14.35;;;;;;;0.13;100.00;100679.59;4916992;29;20164;-66
2021/12/11 02:02:14;;;;;;;28.00;15.07;;;;;;;0.13;100.00;100684.00;4916908;29;20037;-66
2021/12/11 02:04:45;;;;;;;28.60;14.80;;;;;;;0.12;100.00;100698.06;4916928;29;20071;-65
2021/12/11 02:07:19;;;;;;;26.40;14.23;;;;;;;0.11;100.00;100701.66;4916936;29;20072;-65
2021/12/11 02:09:54;;;;;;;29.42;14.77;;;;;;;0.12;100.00;100711.19;4916454;29;20515;-65
2021/12/11 02:12:36;;;;;;;28.92;13.77;;;;;;;0.10;100.00;100713.09;4916827;29;20028;-65
2021/12/11 02:15:07;;;;;;;29.60;16.02;;;;;;;0.11;100.00;100727.88;4916890;29;20112;-67
2021/12/11 02:17:38;;;;;;;31.20;18.20;;;;;;;0.10;100.00;100721.78;4916767;29;20027;-67
2021/12/11 02:20:22;;;;;;;28.60;14.00;;;;;;;0.09;100.00;100728.00;4916841;29;20028;-65
2021/12/11 02:22:49;;;;;;;29.83;14.68;;;;;;;0.10;100.00;100728.84;4916467;29;20071;-65
2021/12/11 02:25:27;;;;;;;30.80;15.00;;;;;;;0.09;100.00;100724.56;4916651;29;20032;-67
2021/12/11 02:28:05;;;;;;;32.60;16.88;;;;;;;0.06;100.00;100730.91;4916393;29;20091;-66
2021/12/11 02:30:42;;;;;;;30.27;15.68;;;;;;;0.03;100.00;100738.19;4916631;29;20027;-65
2021/12/11 02:33:30;;;;;;;31.40;18.55;;;;;;;0.04;100.00;100751.16;4916415;29;20074;-65
2021/12/11 02:36:09;;;;;;;29.70;17.15;;;;;;;0.03;100.00;100753.91;4916670;29;20075;-67
2021/12/11 02:38:43;;;;;;;30.55;13.93;;;;;;;-0.02;100.00;100764.81;4916559;29;20028;-67
2021/12/11 02:41:33;;;;;;;28.98;14.30;;;;;;;-0.08;100.00;100760.91;4916794;29;20392;-65
2021/12/11 02:44:06;;;;;;;30.40;14.77;;;;;;;-0.08;100.00;100765.31;4916079;29;20028;-65
2021/12/11 02:46:41;;;;;;;32.85;16.50;;;;;;;-0.10;100.00;100767.25;4916248;29;20020;-65
2021/12/11 02:49:16;;;;;;;30.77;14.45;;;;;;;-0.12;100.00;100771.78;4916590;29;20052;-67
2021/12/11 02:51:48;;;;;;;26.30;12.52;;;;;;;-0.14;100.00;100782.38;4916495;29;20064;-67
2021/12/11 02:54:19;;;;;;;24.77;13.02;;;;;;;-0.16;100.00;100783.47;4916573;29;20028;-65
2021/12/11 02:56:55;;;;;;;30.10;13.90;;;;;;;-0.19;100.00;100781.94;4915954;29;20060;-65
2021/12/11 02:59:26;;;;;;;26.75;13.43;;;;;;;-0.16;100.00;100779.06;4916598;29;20055;-65
2021/12/11 03:02:07;;;;;;;26.90;13.20;;;;;;;-0.17;100.00;100772.16;4915942;29;20115;-65
2021/12/11 03:04:39;;;;;;;;;;;;;;;-0.13;100.00;100786.69;4916359;29;20076;-65
2021/12/11 03:07:09;;;;;;;25.48;13.30;;;;;;;-0.11;100.00;100792.59;4916383;29;19919;-65
2021/12/11 03:09:38;;;;;;;28.67;15.25;;;;;;;-0.09;100.00;100800.34;4916382;29;20063;-65
2021/12/11 03:12:07;;;;;;;30.77;15.50;;;;;;;-0.07;100.00;100798.44;4916298;29;20032;-68
2021/12/11 03:14:33;;;;;;;30.35;14.57;;;;;;;-0.04;100.00;100803.41;4916298;29;20028;-66
2021/12/11 03:17:00;;;;;;;28.80;14.80;;;;;;;-0.04;100.00;100808.66;4916308;29;20431;-65
2021/12/11 03:19:29;;;;;;;29.52;14.38;;;;;;;-0.04;100.00;100816.53;4915951;29;20036;-67
2021/12/11 03:21:56;;;;;;;34.33;16.30;;;;;;;-0.04;100.00;100814.72;4916298;29;20027;-66
2021/12/11 03:24:23;;;;;;;29.95;15.15;;;;;;;-0.01;100.00;100822.34;4916184;29;20044;-65
2021/12/11 03:26:51;;;;;;;35.15;15.88;;;;;;;0.03;100.00;100819.44;4899192;29;20042;-66
2021/12/11 03:29:17;;;;;;;40.75;17.55;;;;;;;0.03;100.00;100816.81;4916128;29;20032;-65
2021/12/11 03:31:43;;;;;;;50.30;21.58;;;;;;;0.06;100.00;100829.72;4916028;29;20103;-65
2021/12/11 03:34:16;;;;;;;34.25;15.25;;;;;;;0.10;100.00;100837.16;4915955;29;20055;-65
2021/12/11 03:36:42;;;;;;;37.38;16.38;;;;;;;0.12;100.00;100840.50;4916022;29;20032;-65
2021/12/11 03:39:12;;;;;;;39.90;18.55;;;;;;;0.10;100.00;100828.47;4917266;29;20036;-67
2021/12/11 03:41:40;;;;;;;57.03;17.08;;;;;;;0.14;100.00;100843.00;4919528;29;20024;-65
2021/12/11 03:44:06;;;;;;;42.13;16.90;;;;;;;0.12;100.00;100835.25;4919023;29;20036;-65
2021/12/11 03:46:32;;;;;;;50.92;19.73;;;;;;;0.14;100.00;100846.44;4919412;29;20028;-65
2021/12/11 03:49:02;;;;;;;37.63;17.73;;;;;;;0.15;100.00;100848.09;4919102;29;20161;-65
2021/12/11 03:51:31;;;;;;;39.28;15.88;;;;;;;0.11;100.00;100844.09;4919152;29;20083;-65
2021/12/11 03:53:58;;;;;;;36.35;16.38;;;;;;;0.11;100.00;100849.34;4919049;29;20035;-65
2021/12/11 03:56:24;;;;;;;76.75;18.33;;;;;;;0.08;100.00;100835.63;4902365;29;20469;-65
2021/12/11 03:58:51;;;;;;;44.63;19.80;;;;;;;0.13;100.00;100850.03;4918488;29;20096;-65
2021/12/11 04:01:27;;;;;;;37.15;19.10;;;;;;;0.11;100.00;100856.38;4919231;29;20036;-65
2021/12/11 04:03:56;;;;;;;68.97;18.73;;;;;;;0.06;100.00;100854.13;4919142;29;20495;-65
2021/12/11 04:06:23;;;;;;;38.50;19.05;;;;;;;0.06;100.00;100859.38;4918193;29;20028;-65
2021/12/11 04:08:49;;;;;;;51.03;19.10;;;;;;;0.06;100.00;100861.16;4918551;29;20492;-65
2021/12/11 04:11:19;;;;;;;45.35;16.88;;;;;;;0.05;100.00;100860.31;4918506;29;20084;-65
2021/12/11 04:13:47;;;;;;;67.85;20.95;;;;;;;0.05;100.00;100862.13;4918250;29;20051;-66
2021/12/11 04:16:16;;;;;;;47.08;18.00;;;;;;;0.04;100.00;100868.31;4918932;29;20036;-65
2021/12/11 04:18:41;;;;;;;36.85;16.70;;;;;;;0.06;100.00;100869.03;4918858;29;20107;-66
2021/12/11 04:21:07;;;;;;;30.85;15.88;;;;;;;-0.04;100.00;100855.84;4918929;29;20028;-65
2021/12/11 04:23:33;;;;;;;32.97;16.20;;;;;;;0.06;100.00;100877.72;4918636;29;20028;-65
2021/12/11 04:25:59;;;;;;;36.45;17.00;;;;;;;-0.04;100.00;100863.72;4918548;29;20039;-65
2021/12/11 04:28:29;;;;;;;56.65;18.50;;;;;;;0.09;100.00;100882.72;4918664;29;20059;-65
2021/12/11 04:31:03;;;;;;;33.08;16.75;;;;;;;0.13;100.00;100896.38;4918535;29;20039;-66
2021/12/11 04:33:29;;;;;;;29.83;17.40;;;;;;;0.15;100.00;100895.31;4918412;29;20457;-68
2021/12/11 04:35:55;;;;;;;31.63;16.35;;;;;;;0.17;100.00;100901.25;4918559;29;20032;-65
2021/12/11 04:38:20;;;;;;;35.67;17.30;;;;;;;0.21;100.00;100902.69;4918433;29;20032;-65
2021/12/11 04:40:51;;;;;;;31.63;15.95;;;;;;;0.24;100.00;100912.06;4918537;29;20392;-65
2021/12/11 04:43:20;;;;;;;30.73;17.90;;;;;;;0.26;100.00;100909.31;4918438;29;20464;-65
2021/12/11 04:45:54;;;;;;;29.52;15.75;;;;;;;0.29;100.00;100917.78;4918262;29;20443;-65
2021/12/11 04:51:09;;;;;;;33.05;16.33;;;;;;;0.36;100.00;100913.66;4917089;29;20044;-65
2021/12/11 04:58:58;;;;;;;32.70;18.33;;;;;;;0.46;100.00;100913.72;4918298;29;20083;-65
2021/12/11 05:09:31;;;;;;;36.88;18.77;;;;;;;0.58;100.00;100940.72;4917691;29;20067;-65
2021/12/11 05:12:15;;;;;;;40.63;21.85;;;;;;;0.62;100.00;100942.13;4917806;29;20040;-65
2021/12/11 05:14:41;;;;;;;35.65;18.35;;;;;;;0.66;100.00;100943.53;4917292;29;20028;-65
2021/12/11 05:17:08;;;;;;;35.38;17.92;;;;;;;0.70;100.00;100944.09;4917694;29;20040;-65
2021/12/11 05:19:34;;;;;;;31.42;16.77;;;;;;;0.75;100.00;100957.66;4917505;29;20396;-65
2021/12/11 05:22:01;;;;;;;35.00;17.10;;;;;;;0.80;100.00;100955.47;4917311;29;20031;-65
2021/12/11 05:24:26;;;;;;;38.28;20.20;;;;;;;0.83;100.00;100956.03;4900739;29;20123;-65
2021/12/11 05:26:52;;;;;;;31.38;17.00;;;;;;;0.87;100.00;100965.34;4917232;29;20461;-66
2021/12/11 05:29:17;;;;;;;36.42;18.15;;;;;;;0.85;100.00;100956.75;4917590;29;20043;-67
2021/12/11 05:31:43;;;;;;;36.83;18.13;;;;;;;0.93;100.00;100969.22;4917509;29;20036;-65
2021/12/11 05:34:09;;;;;;;38.75;17.60;;;;;;;0.97;100.00;100981.13;4917167;29;20056;-65
2021/12/11 05:36:35;;;;;;;37.65;20.85;;;;;;;1.02;100.00;100976.31;4917119;29;20034;-66
2021/12/11 05:39:17;;;;;;;43.85;19.92;;;;;;;1.03;100.00;100970.09;4917222;29;20095;-65
2021/12/11 05:41:45;;;;;;;36.53;18.98;;;;;;;1.08;100.00;100970.53;4916957;29;20028;-65
2021/12/11 05:44:12;;;;;;;39.97;20.60;;;;;;;1.08;100.00;100974.97;4916496;29;20115;-65
2021/12/11 05:46:38;;;;;;;33.88;16.80;;;;;;;1.11;100.00;100985.19;4916680;29;20028;-65
2021/12/11 05:49:05;;;;;;;32.60;16.85;;;;;;;1.10;100.00;100986.16;4916732;29;20039;-65
2021/12/11 05:51:38;;;;;;;32.33;16.52;;;;;;;1.17;100.00;100995.16;4916934;29;20028;-65
2021/12/11 05:54:10;;;;;;;37.53;19.23;;;;;;;1.20;100.00;100991.44;4917032;29;20032;-66
2021/12/11 05:56:38;;;;;;;37.38;19.45;;;;;;;1.20;100.00;100994.91;4916997;29;20016;-66
2021/12/11 05:59:07;;;;;;;44.70;23.95;;;;;;;1.21;100.00;100993.94;4916651;29;20087;-65
2021/12/11 06:01:47;;;;;;;33.00;17.42;;;;;;;1.20;100.00;100989.66;4916369;29;20057;-66
2021/12/11 06:04:24;;;;;;;30.50;15.25;;;;;;;1.17;100.00;100989.91;4899937;29;20023;-66
2021/12/11 06:06:50;;;;;;;33.95;19.48;;;;;;;1.20;100.00;101001.97;4916838;29;20036;-66
2021/12/11 06:09:19;;;;;;;31.88;16.27;;;;;;;1.25;100.00;101010.28;4916567;29;20028;-66
2021/12/11 06:11:47;;;;;;;34.55;20.08;;;;;;;1.29;100.00;101009.06;4916455;29;20028;-65
2021/12/11 06:14:16;;;;;;;37.85;18.55;;;;;;;1.34;100.00;101011.25;4916369;29;20024;-65
2021/12/11 06:16:42;;;;;;;33.97;17.65;;;;;;;1.34;100.00;100998.13;4916554;29;20060;-67
2021/12/11 06:19:08;;;;;;;34.65;16.33;;;;;;;1.39;100.00;101014.31;4916814;29;20074;-66
2021/12/11 06:21:35;;;;;;;38.42;19.50;;;;;;;1.34;100.00;101012.13;4899855;29;20038;-65
2021/12/11 06:24:01;;;;;;;38.00;19.50;;;;;;;1.29;100.00;101002.00;4916687;29;20056;-66
2021/12/11 06:26:27;;;;;;;37.50;19.08;;;;;;;1.31;100.00;101021.09;4916687;29;20559;-66
2021/12/11 06:28:52;;;;;;;36.38;19.25;;;;;;;1.29;100.00;101020.41;4916738;29;20043;-66
2021/12/11 06:31:19;;;;;;;34.80;16.08;;;;;;;1.31;100.00;101028.16;4916841;29;20032;-66
2021/12/11 06:33:49;;;;;;;30.67;15.88;;;;;;;1.29;100.00;101024.81;4916561;29;20056;-66
2021/12/11 06:36:16;;;;;;;35.70;18.00;;;;;;;1.36;100.00;101046.13;4916813;29;20032;-66
2021/12/11 06:38:45;;;;;;;39.47;18.85;;;;;;;1.37;100.00;101039.94;4916808;29;20118;-66
2021/12/11 06:41:14;;;;;;;38.67;18.23;;;;;;;1.38;100.00;101047.66;4916353;29;20171;-66
2021/12/11 06:43:40;;;;;;;38.05;18.08;;;;;;;1.42;100.00;101054.34;4916613;29;20059;-66
2021/12/11 06:46:07;;;;;;;36.40;18.95;;;;;;;1.42;100.00;101051.72;4916561;29;20063;-66
2021/12/11 06:48:33;;;;;;;34.88;17.25;;;;;;;1.44;100.00;101048.94;4899672;29;20480;-66
2021/12/11 06:51:00;;;;;;;40.00;18.60;;;;;;;1.44;100.00;101054.19;4916558;29;20118;-66
2021/12/11 06:53:31;;;;;;;40.45;19.15;;;;;;;1.44;100.00;101056.81;4916601;29;20107;-66
2021/12/11 06:55:56;;;;;;;41.80;19.67;;;;;;;1.45;100.00;101061.94;4916513;29;20028;-65
2021/12/11 06:58:22;;;;;;;35.28;16.83;;;;;;;1.47;100.00;101064.44;4916583;29;20389;-65
2021/12/11 07:00:48;;;;;;;41.95;21.27;;;;;;;1.47;100.00;101060.03;4916562;29;20052;-65
2021/12/11 07:03:13;;;;;;;38.00;18.38;;;;;;;1.50;100.00;101069.44;4916452;29;20035;-66
2021/12/11 07:05:39;;;;;;;37.40;17.98;;;;;;;1.48;100.00;101060.84;4916431;29;20032;-65
2021/12/11 07:08:06;;;;;;;35.17;17.30;;;;;;;1.59;100.00;101076.50;4916267;29;20052;-65
2021/12/11 07:10:32;;;;;;;31.70;16.40;;;;;;;1.64;100.00;101078.75;4916239;29;20111;-66
2021/12/11 07:12:58;;;;;;;36.40;18.50;;;;;;;1.66;100.00;101075.03;4916451;29;20187;-65
2021/12/11 07:15:23;;;;;;;38.45;19.60;;;;;;;1.72;100.00;101082.38;4919602;29;20039;-66
2021/12/11 07:17:49;;;;;;;34.40;18.00;;;;;;;1.74;100.00;101075.19;4920078;29;20144;-66
2021/12/11 07:20:16;;;;;;;35.55;18.33;;;;;;;1.81;100.00;101085.16;4919957;29;20490;-65
2021/12/11 07:22:42;;;;;;;37.60;19.63;;;;;;;1.84;100.00;101091.00;4919927;29;20610;-65
2021/12/11 07:25:25;;;;;;;40.67;20.45;;;;;;;1.89;100.00;101090.63;4919751;29;20099;-65
2021/12/11 07:27:53;;;;;;;40.40;19.63;;;;;;;1.93;100.00;101094.63;4919506;29;20043;-65
2021/12/11 07:30:19;;;;;;;38.08;17.27;;;;;;;1.94;100.00;101091.88;4926395;29;20028;-65
2021/12/11 07:32:44;;;;;;;33.28;16.67;;;;;;;1.98;100.00;101101.13;4935111;29;20039;-66
2021/12/11 07:35:10;;;;;;;37.60;18.63;;;;;;;2.02;100.00;101109.59;4935041;29;20028;-66
2021/12/11 07:37:36;;;;;;;36.53;20.08;;;;;;;2.04;100.00;101101.56;4917898;29;20032;-66
2021/12/11 07:40:05;;;;;;;35.72;19.90;;;;;;;2.07;100.00;101106.56;4934970;29;20050;-65
2021/12/11 07:42:31;;;;;;;33.65;17.90;;;;;;;2.10;100.00;101109.75;4916564;29;20039;-65
2021/12/11 07:44:56;;;;;;;34.40;17.98;;;;;;;2.15;100.00;101112.00;4934733;29;20040;-68
2021/12/11 07:47:21;;;;;;;38.22;19.45;;;;;;;2.19;100.00;101110.75;4934674;29;20095;-66
2021/12/11 07:49:47;;;;;;;34.38;18.85;;;;;;;2.26;100.00;101114.50;4934754;29;20542;-66
2021/12/11 07:52:12;;;;;;;37.67;19.33;;;;;;;2.29;100.00;101119.50;4934551;29;20049;-65
2021/12/11 07:54:38;;;;;;;38.15;18.13;;;;;;;2.36;100.00;101125.06;4917539;29;20028;-67
2021/12/11 07:57:03;;;;;;;35.10;19.23;;;;;;;2.38;100.00;101128.34;4934520;29;20023;-65
2021/12/11 07:59:29;;;;;;;36.25;20.08;;;;;;;2.45;100.00;101128.66;4934412;29;20138;-67
2021/12/11 08:01:55;;;;;;;43.28;23.45;;;;;;;2.47;100.00;101138.09;4934460;29;20024;-67
2021/12/11 08:04:21;;;;;;;42.03;22.08;;;;;;;2.50;100.00;101136.97;4934273;29;20063;-67
2021/12/11 08:06:47;;;;;;;36.40;17.83;;;;;;;2.49;100.00;101140.56;4934276;29;20031;-65
2021/12/11 08:09:20;;;;;;;36.65;18.70;;;;;;;2.47;100.00;101134.63;4934060;29;20036;-65
2021/12/11 08:11:46;;;;;;;37.63;19.67;;;;;;;2.46;100.00;101154.00;4934092;29;20035;-67
2021/12/11 08:14:12;;;;;;;32.90;15.25;;;;;;;2.41;100.00;101155.25;4934249;29;20058;-67
2021/12/11 08:16:47;;;;;;;33.90;19.80;;;;;;;2.41;100.00;101157.03;4934020;29;20016;-65
2021/12/11 08:19:16;;;;;;;27.95;14.90;;;;;;;2.44;100.00;101166.47;4934708;29;20667;-65
2021/12/11 08:21:43;;;;;;;33.20;15.63;;;;;;;2.52;100.00;101164.00;4937763;29;20052;-67
2021/12/11 08:24:08;;;;;;;31.15;15.13;;;;;;;2.59;100.00;101183.53;4937486;29;20032;-67
2021/12/11 08:26:36;;;;;;;27.65;13.60;;;;;;;2.71;100.00;101192.97;4937445;29;20051;-67
2021/12/11 08:29:03;;;;;;;29.60;12.05;;;;;;;2.79;100.00;101182.59;4937546;29;20144;-69
2021/12/11 08:31:28;;;;;;;26.90;13.50;;;;;;;2.87;100.00;101197.72;4937563;29;20032;-65
2021/12/11 08:33:54;;;;;;;27.83;12.73;;;;;;;2.94;100.00;101198.00;4937263;29;20055;-68
2021/12/11 08:36:22;;;;;;;22.75;10.82;;;;;;;3.01;100.00;101196.44;4937471;29;20028;-68
2021/12/11 08:38:48;;;;;;;22.98;10.15;;;;;;;3.11;100.00;101196.47;4937439;29;20031;-65
2021/12/11 08:41:17;;;;;;;21.40;9.85;;;;;;;3.20;100.00;101201.72;4937419;29;20411;-65
2021/12/11 08:43:46;;;;;;;19.23;8.50;;;;;;;3.31;100.00;101207.84;4937403;29;20031;-68
2021/12/11 08:46:23;;;;;;;23.27;7.95;;;;;;;3.41;100.00;101213.94;4937264;29;20024;-68
2021/12/11 08:48:50;;;;;;;19.33;8.65;;;;;;;3.50;100.00;101208.63;4920241;29;20032;-69
2021/12/11 08:51:32;;;;;;;15.85;8.10;;;;;;;3.56;100.00;101215.13;4937293;29;20032;-67
2021/12/11 08:53:58;;;;;;;15.48;6.78;;;;;;;3.66;100.00;101223.84;4937192;29;20024;-67
2021/12/11 08:56:25;;;;;;;21.83;8.13;;;;;;;3.73;100.00;101235.50;4937193;29;20040;-66
2021/12/11 08:58:53;;;;;;;19.17;7.35;;;;;;;3.80;100.00;101242.84;4937220;29;20031;-67
2021/12/11 09:01:38;;;;;;;15.52;6.45;;;;;;;3.87;100.00;101244.75;4919924;29;20032;-67
2021/12/11 09:04:15;;;;;;;15.77;7.18;;;;;;;3.93;100.00;101246.03;4936909;29;20024;-67
2021/12/11 09:06:46;;;;;;;15.40;5.90;;;;;;;4.01;100.00;101245.28;4936894;29;20055;-67
2021/12/11 09:09:20;;;;;;;20.00;7.33;;;;;;;4.05;100.00;101260.69;4936718;29;20059;-66
2021/12/11 09:11:54;;;;;;;19.67;8.00;;;;;;;4.07;100.00;101257.91;4936696;29;20280;-66
2021/12/11 09:14:30;;;;;;;16.77;6.13;;;;;;;4.17;100.00;101275.38;4936799;29;20031;-66
2021/12/11 09:17:01;;;;;;;16.80;7.63;;;;;;;4.24;100.00;101282.72;4919665;29;20097;-69
2021/12/11 09:19:32;;;;;;;16.40;7.47;;;;;;;4.29;100.00;101285.75;4936782;29;20361;-66
2021/12/11 09:22:12;;;;;;;21.03;8.73;;;;;;;4.29;100.00;101277.84;4919850;29;20023;-67
2021/12/11 09:24:43;;;;;;;22.38;9.02;;;;;;;4.36;100.00;101292.13;4936551;29;20055;-67
2021/12/11 09:27:20;;;;;;;21.00;9.43;;;;;;;4.38;100.00;101295.47;4936478;29;20467;-68
2021/12/11 09:29:55;;;;;;;23.58;11.52;;;;;;;4.40;100.00;101304.03;4936558;29;20330;-67
2021/12/11 09:32:25;;;;;;;22.23;11.25;;;;;;;4.43;100.00;101321.41;4936403;29;20027;-66
2021/12/11 09:35:12;;;;;;;19.55;8.63;;;;;;;4.44;100.00;101323.09;4936217;29;20066;-66
2021/12/11 09:37:40;;;;;;;24.10;11.73;;;;;;;4.44;100.00;101320.44;4918727;29;20047;-67
2021/12/11 09:40:08;;;;;;;27.05;12.20;;;;;;;4.44;100.00;101321.28;4936431;29;20042;-67
2021/12/11 09:42:34;;;;;;;23.50;11.43;;;;;;;4.47;100.00;101338.66;4936167;29;20027;-68
2021/12/11 09:45:11;;;;;;;25.23;11.97;;;;;;;4.50;100.00;101336.53;4936202;29;20547;-67
2021/12/11 09:47:41;;;;;;;27.65;13.63;;;;;;;4.50;100.00;101346.28;4936016;29;20106;-67
2021/12/11 09:50:21;;;;;;;23.33;11.95;;;;;;;4.51;100.00;101345.31;4936235;29;20035;-67
2021/12/11 09:52:47;;;;;;;27.20;12.18;;;;;;;4.51;100.00;101362.00;4936188;29;20506;-67
2021/12/11 09:55:39;;;;;;;24.70;11.20;;;;;;;4.47;100.00;101354.50;4936085;29;20032;-67
2021/12/11 09:58:10;;;;;;;26.42;12.52;;;;;;;4.53;100.00;101370.59;4932641;29;20044;-67
2021/12/11 10:00:44;;;;;;;36.30;13.73;;;;;;;4.51;100.00;101372.56;4936033;29;20387;-67
2021/12/11 10:03:12;;;;;;;25.50;14.10;;;;;;;4.54;100.00;101374.06;4936043;29;20028;-67
2021/12/11 10:05:44;;;;;;;23.08;10.90;;;;;;;4.55;100.00;101378.38;4935901;29;20086;-66
2021/12/11 10:11:17;;;;;;;29.45;14.23;;;;;;;4.55;100.00;101395.03;4936144;29;20094;-67
2021/12/11 10:13:59;;;;;;;28.60;15.20;;;;;;;4.56;100.00;101395.91;4935811;29;20094;-67
2021/12/11 10:16:38;;;;;;;26.65;13.60;;;;;;;4.50;100.00;101397.28;4935861;29;20028;-67
2021/12/11 10:19:06;;;;;;;30.20;14.88;;;;;;;4.46;100.00;101406.50;4935769;29;20031;-67
2021/12/11 10:21:38;;;;;;;31.50;13.90;;;;;;;4.46;100.00;101406.50;4935763;29;20082;-67
2021/12/11 10:24:08;;;;;;;30.73;14.75;;;;;;;4.49;100.00;101413.28;4935689;29;20031;-67
2021/12/11 10:26:35;;;;;;;27.83;14.65;;;;;;;4.50;100.00;101420.22;4935607;29;20494;-67
2021/12/11 10:29:05;;;;;;;29.35;15.52;;;;;;;4.56;100.00;101425.78;4935810;29;20067;-67
2021/12/11 10:31:47;;;;;;;27.88;14.70;;;;;;;4.61;100.00;101430.63;4935652;29;20051;-66
2021/12/11 10:34:18;;;;;;;31.83;17.45;;;;;;;4.59;100.00;101427.31;4935437;29;20055;-67
2021/12/11 10:36:51;;;;;;;27.90;14.98;;;;;;;4.63;100.00;101433.13;4935577;29;20031;-67
2021/12/11 10:39:17;;;;;;;28.13;14.98;;;;;;;4.62;100.00;101437.59;4935648;29;20111;-66
2021/12/11 10:41:44;;;;;;;31.05;16.90;;;;;;;4.61;100.00;101435.91;4935545;29;20475;-66
2021/12/11 10:44:25;;;;;;;29.30;16.42;;;;;;;4.59;100.00;101435.22;4935572;29;20093;-67
2021/12/11 10:47:14;;;;;;;32.05;16.33;;;;;;;4.61;100.00;101441.19;4935506;29;20117;-66
2021/12/11 10:49:42;;;;;;;28.05;13.88;;;;;;;4.60;100.00;101436.88;4939402;29;20039;-67
2021/12/11 10:52:24;;;;;;;30.48;16.73;;;;;;;4.61;100.00;101435.91;4922197;29;20054;-66
2021/12/11 10:54:51;;;;;;;36.20;14.75;;;;;;;4.61;100.00;101441.19;4939234;29;20028;-67
2021/12/11 10:57:18;;;;;;;24.20;14.63;;;;;;;4.71;100.00;101449.09;4922375;29;20051;-66
2021/12/11 10:59:47;;;;;;;30.33;15.32;;;;;;;4.79;100.00;101457.13;4939102;29;20036;-67
2021/12/11 11:02:20;;;;;;;29.33;15.02;;;;;;;4.78;99.57;101469.50;4939131;29;20034;-67
2021/12/11 11:04:54;;;;;;;23.52;11.45;;;;;;;4.71;99.67;101475.50;4939010;29;20031;-67
2021/12/11 11:07:20;;;;;;;30.25;15.13;;;;;;;4.65;99.65;101476.91;4938997;29;20035;-67
2021/12/11 11:09:48;;;;;;;27.75;12.65;;;;;;;4.65;99.55;101479.56;4939098;29;20432;-67
2021/12/11 11:12:17;;;;;;;29.55;15.15;;;;;;;4.67;100.00;101484.72;4939003;29;20055;-67
2021/12/11 11:14:44;;;;;;;44.13;16.27;;;;;;;4.74;100.00;101481.38;4938964;29;20038;-67
2021/12/11 11:17:14;;;;;;;30.63;14.65;;;;;;;4.77;99.98;101490.81;4939003;29;20028;-67
2021/12/11 11:19:40;;;;;;;29.30;15.73;;;;;;;4.76;99.82;101489.13;4939008;29;20034;-67
2021/12/11 11:22:13;;;;;;;34.45;15.00;;;;;;;4.76;99.99;101489.97;4938938;29;20115;-67
2021/12/11 11:24:45;;;;;;;32.60;15.82;;;;;;;4.78;100.00;101497.75;4938768;29;20028;-67
2021/12/11 11:27:12;;;;;;;30.33;15.85;;;;;;;4.76;100.00;101507.63;4938745;29;20472;-67
2021/12/11 11:29:41;;;;;;;31.23;16.38;;;;;;;4.71;100.00;101509.88;4938780;29;20039;-67
2021/12/11 11:32:10;;;;;;;29.25;16.23;;;;;;;4.65;100.00;101511.28;4938792;29;20038;-66
2021/12/11 11:34:40;;;;;;;33.13;17.50;;;;;;;4.66;100.00;101525.31;4938549;29;20047;-67
2021/12/11 11:37:07;;;;;;;32.00;13.52;;;;;;;4.66;100.00;101520.03;4938530;29;20391;-67
2021/12/11 11:39:33;;;;;;;30.00;13.90;;;;;;;4.72;100.00;101520.31;4921787;29;20027;-67
2021/12/11 11:42:02;;;;;;;27.50;14.70;;;;;;;4.72;100.00;101533.50;4938489;29;20525;-67